createdAt,value
2023-06-07T00:00:00.872Z,968
2023-06-07T00:01:00.568Z,968.2
2023-06-07T00:02:00.634Z,968.4
2023-06-07T00:03:00.726Z,968.4
2023-06-07T00:04:00.699Z,968.4
2023-06-07T00:05:00.643Z,968.8
2023-06-07T00:06:00.582Z,968.8
2023-06-07T00:07:00.588Z,968.8
2023-06-07T00:08:00.587Z,968.8
2023-06-07T00:09:00.579Z,969
2023-06-07T00:10:01.007Z,969.3
2023-06-07T00:11:00.575Z,969.3
2023-06-07T00:12:00.587Z,969.3
2023-06-07T00:13:00.575Z,969.3
2023-06-07T00:14:00.571Z,969.3
2023-06-07T00:15:01.437Z,969.7
2023-06-07T00:16:00.601Z,969.7
2023-06-07T00:17:00.630Z,969.7
2023-06-07T00:18:00.730Z,970.1
2023-06-07T00:19:00.601Z,969.7
2023-06-07T00:20:00.622Z,969.9
2023-06-07T00:21:00.584Z,970.1
2023-06-07T00:22:00.615Z,970.1
2023-06-07T00:23:00.586Z,970.4
2023-06-07T00:24:00.639Z,970.4
2023-06-07T00:25:00.672Z,969.7
2023-06-07T00:26:00.589Z,970.6
2023-06-07T00:27:00.592Z,970.6
2023-06-07T00:28:00.608Z,970.6
2023-06-07T00:29:00.591Z,970.6
2023-06-07T00:30:00.696Z,970.6
2023-06-07T00:31:00.693Z,970.6
2023-06-07T00:32:00.601Z,971
2023-06-07T00:33:00.665Z,970.8
2023-06-07T00:34:00.610Z,970.8
2023-06-07T00:35:00.605Z,970.6
2023-06-07T00:36:00.616Z,971
2023-06-07T00:37:00.618Z,970.8
2023-06-07T00:38:00.607Z,970.8
2023-06-07T00:39:00.601Z,971
2023-06-07T00:40:01.160Z,971
2023-06-07T00:41:00.606Z,971
2023-06-07T00:42:00.621Z,970.8
2023-06-07T00:43:00.616Z,971
2023-06-07T00:44:00.617Z,971
2023-06-07T00:45:00.623Z,971
2023-06-07T00:46:00.613Z,971
2023-06-07T00:47:00.615Z,971
2023-06-07T00:48:00.681Z,971
2023-06-07T00:49:00.668Z,971
2023-06-07T00:50:00.796Z,971.2
2023-06-07T00:51:00.707Z,971.2
2023-06-07T00:52:00.625Z,971.2
2023-06-07T00:53:00.615Z,971.2
2023-06-07T00:54:00.655Z,971.4
2023-06-07T00:55:00.656Z,971.2
2023-06-07T00:56:00.638Z,971.2
2023-06-07T00:57:00.631Z,971.4
2023-06-07T00:58:00.634Z,971.4
2023-06-07T00:59:00.653Z,971.2
2023-06-07T01:00:00.744Z,971.4
2023-06-07T01:01:00.634Z,971.4
2023-06-07T01:02:00.690Z,971.4
2023-06-07T01:03:00.756Z,971.9
2023-06-07T01:04:00.852Z,971.9
2023-06-07T01:05:00.652Z,971.9
2023-06-07T01:06:00.633Z,972.1
2023-06-07T01:07:00.638Z,972.5
2023-06-07T01:08:00.635Z,972.7
2023-06-07T01:09:00.638Z,973.2
2023-06-07T01:10:00.762Z,972.7
2023-06-07T01:11:00.652Z,973
2023-06-07T01:12:00.640Z,973
2023-06-07T01:13:00.669Z,973.2
2023-06-07T01:14:00.639Z,973
2023-06-07T01:15:00.655Z,972.7
2023-06-07T01:16:00.702Z,973.2
2023-06-07T01:17:00.643Z,972.7
2023-06-07T01:18:00.728Z,972.7
2023-06-07T01:19:00.643Z,973
2023-06-07T01:20:01.353Z,973.2
2023-06-07T01:21:00.691Z,973.2
2023-06-07T01:22:00.652Z,973.2
2023-06-07T01:23:00.663Z,973.2
2023-06-07T01:24:00.759Z,973.2
2023-06-07T01:25:00.663Z,973.2
2023-06-07T01:26:00.665Z,973.2
2023-06-07T01:27:00.670Z,973.4
2023-06-07T01:28:00.660Z,973.6
2023-06-07T01:29:00.658Z,973.6
2023-06-07T01:30:01.229Z,973.6
2023-06-07T01:31:00.668Z,973.6
2023-06-07T01:32:00.719Z,973.8
2023-06-07T01:33:00.690Z,973.8
2023-06-07T01:34:00.658Z,973.8
2023-06-07T01:35:00.676Z,974
2023-06-07T01:36:00.667Z,974
2023-06-07T01:37:00.676Z,974
2023-06-07T01:38:00.664Z,974
2023-06-07T01:39:00.681Z,974
2023-06-07T01:40:01.002Z,974
2023-06-07T01:41:00.681Z,974.3
2023-06-07T01:42:00.685Z,974.3
2023-06-07T01:43:00.683Z,974
2023-06-07T01:44:00.685Z,973.8
2023-06-07T01:45:00.702Z,974
2023-06-07T01:46:00.702Z,974
2023-06-07T01:47:00.671Z,974
2023-06-07T01:48:00.717Z,974
2023-06-07T01:49:00.677Z,974
2023-06-07T01:50:00.846Z,974
2023-06-07T01:51:00.686Z,974
2023-06-07T01:52:00.685Z,974.5
2023-06-07T01:53:00.682Z,974.7
2023-06-07T01:54:00.692Z,974.7
2023-06-07T01:55:00.751Z,974.5
2023-06-07T01:56:00.710Z,974.5
2023-06-07T01:57:00.682Z,974.5
2023-06-07T01:58:00.693Z,974.5
2023-06-07T01:59:00.703Z,974.3
2023-06-07T02:00:02.311Z,974.3
2023-06-07T02:01:01.854Z,974
2023-06-07T02:02:01.838Z,974
2023-06-07T02:03:01.883Z,974
2023-06-07T02:04:01.905Z,974
2023-06-07T02:05:01.834Z,974
2023-06-07T02:06:01.839Z,973.6
2023-06-07T02:07:01.843Z,973.6
2023-06-07T02:08:01.871Z,973.6
2023-06-07T02:09:01.839Z,973.6
2023-06-07T02:10:02.276Z,973.6
2023-06-07T02:11:01.850Z,973.6
2023-06-07T02:12:01.849Z,973.2
2023-06-07T02:13:01.842Z,973.4
2023-06-07T02:14:01.868Z,973.6
2023-06-07T02:15:00.409Z,973.6
2023-06-07T02:16:00.420Z,973.4
2023-06-07T02:17:00.417Z,973.4
2023-06-07T02:18:00.448Z,973.6
2023-06-07T02:19:00.404Z,973.4
2023-06-07T02:20:00.479Z,973.6
2023-06-07T02:21:00.400Z,973.6
2023-06-07T02:22:00.419Z,973.6
2023-06-07T02:23:00.425Z,973.6
2023-06-07T02:24:00.438Z,973.6
2023-06-07T02:25:00.402Z,973.6
2023-06-07T02:26:00.408Z,973.6
2023-06-07T02:27:00.408Z,973.4
2023-06-07T02:28:00.412Z,973.6
2023-06-07T02:29:00.411Z,973.6
2023-06-07T02:30:00.479Z,973.6
2023-06-07T02:31:00.491Z,973.6
2023-06-07T02:32:00.411Z,973.6
2023-06-07T02:33:00.465Z,973.6
2023-06-07T02:34:00.432Z,973.6
2023-06-07T02:35:00.421Z,973.6
2023-06-07T02:36:00.417Z,973.6
2023-06-07T02:37:00.428Z,973.8
2023-06-07T02:38:00.423Z,973.8
2023-06-07T02:39:00.422Z,974
2023-06-07T02:40:00.694Z,974
2023-06-07T02:41:00.430Z,974
2023-06-07T02:42:00.442Z,974
2023-06-07T02:43:00.429Z,974
2023-06-07T02:44:00.429Z,974
2023-06-07T02:45:00.428Z,974
2023-06-07T02:46:00.430Z,974
2023-06-07T02:47:00.434Z,974.3
2023-06-07T02:48:00.467Z,974
2023-06-07T02:49:00.440Z,974
2023-06-07T02:50:00.660Z,974
2023-06-07T02:51:00.438Z,974.3
2023-06-07T02:52:00.434Z,974.3
2023-06-07T02:53:00.438Z,974.3
2023-06-07T02:54:00.448Z,974.3
2023-06-07T02:55:00.461Z,974.3
2023-06-07T02:56:00.442Z,974.3
2023-06-07T02:57:00.437Z,974
2023-06-07T02:58:00.443Z,974.3
2023-06-07T02:59:00.454Z,974.3
2023-06-07T03:00:00.467Z,974.5
2023-06-07T03:01:00.483Z,974.3
2023-06-07T03:02:00.545Z,974.3
2023-06-07T03:03:00.529Z,974
2023-06-07T03:04:00.442Z,974
2023-06-07T03:05:00.449Z,974.3
2023-06-07T03:06:00.445Z,974.3
2023-06-07T03:07:00.457Z,974.3
2023-06-07T03:08:00.449Z,974.3
2023-06-07T03:09:00.474Z,974
2023-06-07T03:10:00.770Z,974.3
2023-06-07T03:11:00.456Z,974.3
2023-06-07T03:12:00.458Z,974.3
2023-06-07T03:13:00.465Z,974.5
2023-06-07T03:14:00.451Z,974.3
2023-06-07T03:15:00.454Z,974.5
2023-06-07T03:16:00.473Z,974.5
2023-06-07T03:17:00.512Z,974.5
2023-06-07T03:18:00.473Z,974.5
2023-06-07T03:19:00.492Z,974.7
2023-06-07T03:20:00.467Z,974.7
2023-06-07T03:21:00.476Z,974.9
2023-06-07T03:22:00.468Z,974.9
2023-06-07T03:23:00.472Z,975.1
2023-06-07T03:24:00.526Z,975.1
2023-06-07T03:25:00.485Z,975.4
2023-06-07T03:26:00.496Z,975.4
2023-06-07T03:27:00.483Z,975.4
2023-06-07T03:28:00.477Z,975.4
2023-06-07T03:29:00.503Z,975.6
2023-06-07T03:30:00.493Z,975.4
2023-06-07T03:31:00.509Z,975.4
2023-06-07T03:32:00.503Z,975.4
2023-06-07T03:33:00.552Z,975.4
2023-06-07T03:34:00.481Z,975.4
2023-06-07T03:35:00.495Z,975.4
2023-06-07T03:36:00.513Z,975.4
2023-06-07T03:37:00.488Z,975.4
2023-06-07T03:38:00.482Z,975.4
2023-06-07T03:39:00.505Z,975.1
2023-06-07T03:40:00.491Z,975.4
2023-06-07T03:41:00.490Z,975.1
2023-06-07T03:42:00.486Z,975.1
2023-06-07T03:43:00.513Z,975.4
2023-06-07T03:44:00.533Z,975.1
2023-06-07T03:45:00.505Z,975.4
2023-06-07T03:46:00.499Z,974.9
2023-06-07T03:47:00.495Z,974.9
2023-06-07T03:48:00.690Z,975.1
2023-06-07T03:49:00.585Z,975.1
2023-06-07T03:50:00.503Z,975.1
2023-06-07T03:51:00.501Z,975.1
2023-06-07T03:52:00.509Z,975.1
2023-06-07T03:53:00.514Z,975.1
2023-06-07T03:54:00.515Z,975.1
2023-06-07T03:55:00.534Z,975.1
2023-06-07T03:56:00.505Z,975.1
2023-06-07T03:57:00.543Z,975.4
2023-06-07T03:58:00.524Z,975.4
2023-06-07T03:59:00.544Z,975.4
2023-06-07T04:00:00.540Z,975.4
2023-06-07T04:01:00.515Z,975.4
2023-06-07T04:02:00.533Z,975.4
2023-06-07T04:03:00.603Z,975.4
2023-06-07T04:04:00.695Z,975.4
2023-06-07T04:05:00.639Z,975.4
2023-06-07T04:06:00.541Z,975.4
2023-06-07T04:07:00.521Z,975.4
2023-06-07T04:08:00.763Z,975.4
2023-06-07T04:09:00.708Z,975.4
2023-06-07T04:10:00.523Z,975.4
2023-06-07T04:11:00.517Z,975.4
2023-06-07T04:12:00.520Z,975.4
2023-06-07T04:13:00.517Z,975.4
2023-06-07T04:14:00.515Z,975.4
2023-06-07T04:15:00.531Z,975.4
2023-06-07T04:16:00.620Z,975.4
2023-06-07T04:17:00.556Z,975.4
2023-06-07T04:18:00.573Z,975.4
2023-06-07T04:19:02.327Z,975.4
2023-06-07T04:20:00.551Z,975.1
2023-06-07T04:21:00.558Z,975.6
2023-06-07T04:22:00.560Z,975.4
2023-06-07T04:23:00.528Z,975.4
2023-06-07T04:24:00.579Z,975.6
2023-06-07T04:25:00.549Z,975.4
2023-06-07T04:26:00.548Z,975.4
2023-06-07T04:27:00.535Z,975.6
2023-06-07T04:28:00.603Z,975.6
2023-06-07T04:29:00.537Z,975.6
2023-06-07T04:30:00.554Z,975.8
2023-06-07T04:31:00.539Z,975.8
2023-06-07T04:32:00.577Z,975.8
2023-06-07T04:33:00.584Z,975.8
2023-06-07T04:34:00.548Z,975.8
2023-06-07T04:35:00.558Z,975.8
2023-06-07T04:36:00.544Z,975.8
2023-06-07T04:37:00.564Z,976
2023-06-07T04:38:00.540Z,976.2
2023-06-07T04:39:00.550Z,976.2
2023-06-07T04:40:00.587Z,976.2
2023-06-07T04:41:00.557Z,976.2
2023-06-07T04:42:00.629Z,976.2
2023-06-07T04:43:00.546Z,976.2
2023-06-07T04:44:00.551Z,976.4
2023-06-07T04:45:00.547Z,976.7
2023-06-07T04:46:00.615Z,976.9
2023-06-07T04:47:06.712Z,977.1
2023-06-07T04:48:00.582Z,977.3
2023-06-07T04:49:00.567Z,977.1
2023-06-07T04:50:00.555Z,977.1
2023-06-07T04:51:00.552Z,977.1
2023-06-07T04:52:00.561Z,976.7
2023-06-07T04:53:00.564Z,977.1
2023-06-07T04:54:00.566Z,977.1
2023-06-07T04:55:00.583Z,977.1
2023-06-07T04:56:00.575Z,977.1
2023-06-07T04:57:00.596Z,976.9
2023-06-07T04:58:00.570Z,977.1
2023-06-07T04:59:00.597Z,977.1
2023-06-07T05:00:00.568Z,977.1
2023-06-07T05:01:00.635Z,977.1
2023-06-07T05:02:00.622Z,976.9
2023-06-07T05:03:00.593Z,977.1
2023-06-07T05:04:00.579Z,977.1
2023-06-07T05:05:00.671Z,976.4
2023-06-07T05:06:00.571Z,976.7
2023-06-07T05:07:00.591Z,976.7
2023-06-07T05:08:00.598Z,976.7
2023-06-07T05:09:00.593Z,976.2
2023-06-07T05:10:00.753Z,976.4
2023-06-07T05:11:00.583Z,976.2
2023-06-07T05:12:00.589Z,976.4
2023-06-07T05:13:00.582Z,976.4
2023-06-07T05:14:00.595Z,976.7
2023-06-07T05:15:00.611Z,975.8
2023-06-07T05:16:00.642Z,975.8
2023-06-07T05:17:00.584Z,975.8
2023-06-07T05:18:00.629Z,974.9
2023-06-07T05:19:00.591Z,975.8
2023-06-07T05:20:00.582Z,974.5
2023-06-07T05:21:00.605Z,974.5
2023-06-07T05:22:00.588Z,974.9
2023-06-07T05:23:00.643Z,974.5
2023-06-07T05:24:00.637Z,974
2023-06-07T05:25:00.595Z,973.4
2023-06-07T05:26:00.608Z,973.8
2023-06-07T05:27:00.616Z,973.6
2023-06-07T05:28:12.353Z,974.3
2023-06-07T05:29:00.600Z,974.5
2023-06-07T05:30:00.614Z,972.7
2023-06-07T05:31:00.665Z,973.2
2023-06-07T05:32:00.657Z,973.6
2023-06-07T05:33:00.681Z,973.6
2023-06-07T05:34:00.610Z,973.6
2023-06-07T05:35:00.630Z,974
2023-06-07T05:36:00.607Z,973.2
2023-06-07T05:37:00.611Z,973
2023-06-07T05:38:00.605Z,973.8
2023-06-07T05:39:00.612Z,973.2
2023-06-07T05:40:00.606Z,973.2
2023-06-07T05:41:00.606Z,973.2
2023-06-07T05:42:00.639Z,973.8
2023-06-07T05:43:00.623Z,973.8
2023-06-07T05:44:00.624Z,973.2
2023-06-07T05:45:00.625Z,973.2
2023-06-07T05:46:00.623Z,973.2
2023-06-07T05:47:00.673Z,973.2
2023-06-07T05:48:00.656Z,973.2
2023-06-07T05:49:00.619Z,973.2
2023-06-07T05:50:00.632Z,972.7
2023-06-07T05:51:00.617Z,973
2023-06-07T05:52:00.624Z,972.3
2023-06-07T05:53:00.646Z,972.3
2023-06-07T05:54:00.622Z,972.3
2023-06-07T05:55:00.628Z,972.7
2023-06-07T05:56:00.624Z,972.5
2023-06-07T05:57:00.658Z,971.9
2023-06-07T05:58:00.655Z,971
2023-06-07T05:59:00.638Z,971.4
2023-06-07T06:00:00.634Z,971
2023-06-07T06:01:00.645Z,971.9
2023-06-07T06:02:00.655Z,972.1
2023-06-07T06:03:00.695Z,971.9
2023-06-07T06:04:00.635Z,971
2023-06-07T06:05:00.666Z,971.9
2023-06-07T06:06:00.632Z,971.9
2023-06-07T06:07:00.654Z,971.4
2023-06-07T06:08:00.673Z,971.4
2023-06-07T06:09:00.637Z,971.4
2023-06-07T06:10:00.646Z,971.4
2023-06-07T06:11:00.637Z,971
2023-06-07T06:12:00.663Z,971
2023-06-07T06:13:00.640Z,971.2
2023-06-07T06:14:00.657Z,971
2023-06-07T06:15:00.641Z,970.8
2023-06-07T06:16:00.671Z,971
2023-06-07T06:17:00.716Z,970.6
2023-06-07T06:18:00.675Z,970.6
2023-06-07T06:19:00.648Z,970.6
2023-06-07T06:20:00.677Z,970.8
2023-06-07T06:21:00.657Z,970.1
2023-06-07T06:22:00.651Z,970.1
2023-06-07T06:23:00.647Z,969.9
2023-06-07T06:24:00.683Z,970.1
2023-06-07T06:25:00.659Z,969.3
2023-06-07T06:26:00.942Z,969.9
2023-06-07T06:27:00.672Z,969.9
2023-06-07T06:28:00.746Z,970.1
2023-06-07T06:29:00.675Z,969.9
2023-06-07T06:30:00.713Z,969.7
2023-06-07T06:31:00.694Z,969
2023-06-07T06:32:00.665Z,969.3
2023-06-07T06:33:00.768Z,968.8
2023-06-07T06:34:00.659Z,968.4
2023-06-07T06:35:00.669Z,968.8
2023-06-07T06:36:00.702Z,968.8
2023-06-07T06:37:00.952Z,968.4
2023-06-07T06:38:00.665Z,966.4
2023-06-07T06:39:00.671Z,967.1
2023-06-07T06:40:00.682Z,966.7
2023-06-07T06:41:00.683Z,967.5
2023-06-07T06:42:00.711Z,967.3
2023-06-07T06:43:00.677Z,966.7
2023-06-07T06:44:00.665Z,967.3
2023-06-07T06:45:00.672Z,966.4
2023-06-07T06:46:00.693Z,967.1
2023-06-07T06:47:00.797Z,967.1
2023-06-07T06:48:00.812Z,967.5
2023-06-07T06:49:11.938Z,967.5
2023-06-07T06:50:00.708Z,967.1
2023-06-07T06:51:00.680Z,967.1
2023-06-07T06:52:00.701Z,967.1
2023-06-07T06:53:00.711Z,965.8
2023-06-07T06:54:00.692Z,966.2
2023-06-07T06:55:00.697Z,966.4
2023-06-07T06:56:00.684Z,966.7
2023-06-07T06:57:00.707Z,966.2
2023-06-07T06:58:01.685Z,966.2
2023-06-07T06:59:00.691Z,965.6
2023-06-07T07:00:00.715Z,965.8
2023-06-07T07:01:00.695Z,965.8
2023-06-07T07:02:00.734Z,965.6
2023-06-07T07:03:00.706Z,965.6
2023-06-07T07:04:00.806Z,964.9
2023-06-07T07:05:00.702Z,964.9
2023-06-07T07:06:00.697Z,965.4
2023-06-07T07:07:00.689Z,964.9
2023-06-07T07:08:00.713Z,965.4
2023-06-07T07:09:00.703Z,964.9
2023-06-07T07:10:00.710Z,964.9
2023-06-07T07:11:00.719Z,964.7
2023-06-07T07:12:00.714Z,964.9
2023-06-07T07:13:00.709Z,964
2023-06-07T07:14:00.721Z,964
2023-06-07T07:15:00.716Z,963.6
2023-06-07T07:16:00.744Z,963.6
2023-06-07T07:17:00.743Z,963.4
2023-06-07T07:18:00.811Z,963.2
2023-06-07T07:19:00.725Z,963.2
2023-06-07T07:20:00.906Z,963
2023-06-07T07:21:00.737Z,962.5
2023-06-07T07:22:00.752Z,962.3
2023-06-07T07:23:00.713Z,962.3
2023-06-07T07:24:00.872Z,962.7
2023-06-07T07:25:00.734Z,962.3
2023-06-07T07:26:00.721Z,961.9
2023-06-07T07:27:00.725Z,962.1
2023-06-07T07:28:00.722Z,960.6
2023-06-07T07:29:00.731Z,960.8
2023-06-07T07:30:00.729Z,960.1
2023-06-07T07:31:00.723Z,960.6
2023-06-07T07:32:00.732Z,960.6
2023-06-07T07:33:00.774Z,959.7
2023-06-07T07:34:00.808Z,960.1
2023-06-07T07:35:00.766Z,960.1
2023-06-07T07:36:00.737Z,960.6
2023-06-07T07:37:00.728Z,960.6
2023-06-07T07:38:01.774Z,959.3
2023-06-07T07:39:00.739Z,959.7
2023-06-07T07:40:00.782Z,958.6
2023-06-07T07:41:00.751Z,959.3
2023-06-07T07:42:00.733Z,958.4
2023-06-07T07:43:00.737Z,958.4
2023-06-07T07:44:00.743Z,958.8
2023-06-07T07:45:00.735Z,958.8
2023-06-07T07:46:00.776Z,958.8
2023-06-07T07:47:00.746Z,958.4
2023-06-07T07:48:00.892Z,958
2023-06-07T07:49:00.744Z,957.5
2023-06-07T07:50:00.775Z,958
2023-06-07T07:51:00.754Z,957.5
2023-06-07T07:52:00.753Z,957.5
2023-06-07T07:53:00.746Z,958
2023-06-07T07:54:00.745Z,958
2023-06-07T07:55:00.745Z,957.5
2023-06-07T07:56:00.746Z,957.7
2023-06-07T07:57:00.767Z,956.9
2023-06-07T07:58:00.752Z,957.5
2023-06-07T07:59:00.752Z,957.5
2023-06-07T08:00:00.773Z,956.2
2023-06-07T08:01:00.758Z,955.8
2023-06-07T08:02:00.760Z,956.7
2023-06-07T08:03:00.910Z,955.8
2023-06-07T08:04:00.927Z,956.4
2023-06-07T08:05:00.788Z,956.4
2023-06-07T08:06:00.993Z,955.8
2023-06-07T08:07:00.766Z,955.4
2023-06-07T08:08:00.777Z,955.4
2023-06-07T08:09:00.759Z,955.4
2023-06-07T08:10:00.801Z,955.4
2023-06-07T08:11:00.774Z,956.2
2023-06-07T08:12:00.773Z,955.8
2023-06-07T08:13:00.772Z,955.1
2023-06-07T08:14:00.767Z,954.9
2023-06-07T08:15:00.748Z,954.7
2023-06-07T08:16:00.790Z,955.4
2023-06-07T08:17:00.712Z,955.4
2023-06-07T08:18:00.713Z,954.3
2023-06-07T08:19:00.677Z,954.3
2023-06-07T08:20:00.745Z,955.1
2023-06-07T08:21:00.589Z,954
2023-06-07T08:22:00.564Z,954.5
2023-06-07T08:23:00.517Z,954.9
2023-06-07T08:24:00.571Z,954.5
2023-06-07T08:25:00.500Z,954.5
2023-06-07T08:26:00.435Z,954
2023-06-07T08:27:00.397Z,953.4
2023-06-07T08:28:00.367Z,953.8
2023-06-07T08:29:00.388Z,953.2
2023-06-07T08:30:00.379Z,952.5
2023-06-07T08:31:00.426Z,953.6
2023-06-07T08:32:00.419Z,952.7
2023-06-07T08:33:00.383Z,953.2
2023-06-07T08:34:00.413Z,952.3
2023-06-07T08:35:00.376Z,953
2023-06-07T08:36:00.377Z,952.7
2023-06-07T08:37:00.359Z,952.7
2023-06-07T08:38:00.366Z,951.9
2023-06-07T08:39:00.372Z,952.1
2023-06-07T08:40:00.381Z,951.9
2023-06-07T08:41:00.385Z,952.1
2023-06-07T08:42:00.369Z,951.9
2023-06-07T08:43:00.401Z,952.7
2023-06-07T08:44:00.371Z,952.3
2023-06-07T08:45:00.395Z,952.7
2023-06-07T08:46:00.407Z,951
2023-06-07T08:47:00.366Z,950.1
2023-06-07T08:48:00.461Z,951.2
2023-06-07T08:49:00.374Z,951.7
2023-06-07T08:50:00.401Z,951
2023-06-07T08:51:00.383Z,951.7
2023-06-07T08:52:14.832Z,951.9
2023-06-07T08:53:00.387Z,950.1
2023-06-07T08:54:00.394Z,950.6
2023-06-07T08:55:00.478Z,950.1
2023-06-07T08:56:00.386Z,951.2
2023-06-07T08:57:00.435Z,950.6
2023-06-07T08:58:00.384Z,949.7
2023-06-07T08:59:00.384Z,949.3
2023-06-07T09:00:00.415Z,950.1
2023-06-07T09:01:00.415Z,951
2023-06-07T09:02:00.426Z,950.1
2023-06-07T09:03:00.510Z,949.7
2023-06-07T09:04:00.501Z,950.1
2023-06-07T09:05:00.400Z,950.8
2023-06-07T09:06:00.400Z,949.7
2023-06-07T09:07:00.389Z,949.7
2023-06-07T09:08:00.399Z,948.6
2023-06-07T09:09:00.394Z,948.8
2023-06-07T09:10:00.414Z,949
2023-06-07T09:11:00.430Z,948.8
2023-06-07T09:12:00.396Z,949.3
2023-06-07T09:13:00.394Z,949.3
2023-06-07T09:14:00.430Z,949.3
2023-06-07T09:15:00.403Z,948.4
2023-06-07T09:16:00.427Z,947.7
2023-06-07T09:17:00.536Z,947.1
2023-06-07T09:18:00.896Z,948
2023-06-07T09:19:00.399Z,948.2
2023-06-07T09:20:00.436Z,948
2023-06-07T09:21:00.408Z,948
2023-06-07T09:22:00.412Z,947.5
2023-06-07T09:23:00.412Z,947.5
2023-06-07T09:24:00.507Z,948.2
2023-06-07T09:25:00.420Z,949
2023-06-07T09:26:00.420Z,948.4
2023-06-07T09:27:00.428Z,948.8
2023-06-07T09:28:00.424Z,948.8
2023-06-07T09:29:00.421Z,948
2023-06-07T09:30:00.503Z,947.3
2023-06-07T09:31:00.440Z,948.4
2023-06-07T09:32:00.563Z,948
2023-06-07T09:33:00.441Z,948.8
2023-06-07T09:34:00.443Z,948.2
2023-06-07T09:35:00.426Z,947.5
2023-06-07T09:36:00.468Z,948.2
2023-06-07T09:37:00.584Z,946.7
2023-06-07T09:38:00.488Z,947.5
2023-06-07T09:39:00.431Z,947.5
2023-06-07T09:40:00.492Z,947.5
2023-06-07T09:41:03.072Z,948.2
2023-06-07T09:42:00.471Z,947.1
2023-06-07T09:43:00.637Z,947.1
2023-06-07T09:44:00.438Z,947.5
2023-06-07T09:45:00.496Z,946.7
2023-06-07T09:46:00.462Z,946.9
2023-06-07T09:47:04.116Z,947.1
2023-06-07T09:48:00.483Z,946
2023-06-07T09:49:00.449Z,945.4
2023-06-07T09:50:00.447Z,946.2
2023-06-07T09:51:00.468Z,945.8
2023-06-07T09:52:00.467Z,945.4
2023-06-07T09:53:00.478Z,945.8
2023-06-07T09:54:00.436Z,946.7
2023-06-07T09:55:00.457Z,945.8
2023-06-07T09:56:00.451Z,946.2
2023-06-07T09:57:00.459Z,944.9
2023-06-07T09:58:00.483Z,945.6
2023-06-07T09:59:00.452Z,945.4
2023-06-07T10:00:00.620Z,945.4
2023-06-07T10:01:00.491Z,945.6
2023-06-07T10:02:00.494Z,945.8
2023-06-07T10:03:00.505Z,945.4
2023-06-07T10:04:00.499Z,944.9
2023-06-07T10:05:00.466Z,945.4
2023-06-07T10:06:00.469Z,946
2023-06-07T10:07:00.457Z,946.2
2023-06-07T10:08:00.481Z,946.9
2023-06-07T10:09:00.459Z,945.8
2023-06-07T10:10:00.476Z,945.6
2023-06-07T10:11:00.475Z,945.1
2023-06-07T10:12:00.570Z,945.1
2023-06-07T10:13:00.485Z,944.9
2023-06-07T10:14:00.493Z,944.7
2023-06-07T10:15:00.503Z,945.8
2023-06-07T10:16:00.570Z,946.4
2023-06-07T10:17:00.491Z,945.4
2023-06-07T10:18:00.580Z,944.9
2023-06-07T10:19:00.467Z,944.7
2023-06-07T10:20:00.538Z,944.5
2023-06-07T10:21:00.552Z,945.8
2023-06-07T10:22:00.469Z,945.1
2023-06-07T10:23:00.626Z,945.4
2023-06-07T10:24:00.559Z,944.9
2023-06-07T10:25:00.551Z,946.2
2023-06-07T10:26:00.479Z,945.8
2023-06-07T10:27:00.475Z,945.8
2023-06-07T10:28:00.493Z,946.2
2023-06-07T10:29:00.480Z,946.2
2023-06-07T10:30:00.499Z,945.4
2023-06-07T10:31:00.479Z,943.8
2023-06-07T10:32:00.539Z,943.6
2023-06-07T10:33:00.492Z,943.6
2023-06-07T10:34:00.472Z,943.8
2023-06-07T10:35:00.509Z,944
2023-06-07T10:36:00.490Z,944.5
2023-06-07T10:37:00.479Z,944.7
2023-06-07T10:38:00.482Z,944.9
2023-06-07T10:39:00.485Z,944.7
2023-06-07T10:40:00.532Z,945.4
2023-06-07T10:41:00.494Z,943.6
2023-06-07T10:42:00.548Z,944.5
2023-06-07T10:43:00.522Z,944.9
2023-06-07T10:44:00.507Z,943.2
2023-06-07T10:45:00.509Z,943.8
2023-06-07T10:46:00.601Z,943.6
2023-06-07T10:47:00.578Z,943.4
2023-06-07T10:48:00.530Z,944
2023-06-07T10:49:00.535Z,942.3
2023-06-07T10:50:00.487Z,943.4
2023-06-07T10:51:00.495Z,942.3
2023-06-07T10:52:00.780Z,942.3
2023-06-07T10:53:00.497Z,942.3
2023-06-07T10:54:00.531Z,943.2
2023-06-07T10:55:00.528Z,941.4
2023-06-07T10:56:00.503Z,941.4
2023-06-07T10:57:00.512Z,941.7
2023-06-07T10:58:00.620Z,942.1
2023-06-07T10:59:00.502Z,942.3
2023-06-07T11:00:00.550Z,942.5
2023-06-07T11:01:00.557Z,943.6
2023-06-07T11:02:00.579Z,942.7
2023-06-07T11:03:00.641Z,943.4
2023-06-07T11:05:00.915Z,942.7
2023-06-07T11:06:00.746Z,943.8
2023-06-07T11:07:00.511Z,943.6
2023-06-07T11:08:00.510Z,942.3
2023-06-07T11:09:00.513Z,942.1
2023-06-07T11:10:00.524Z,942.1
2023-06-07T11:11:00.546Z,943
2023-06-07T11:12:00.545Z,942.3
2023-06-07T11:13:00.518Z,941.7
2023-06-07T11:14:00.583Z,941.2
2023-06-07T11:15:00.521Z,942.1
2023-06-07T11:16:00.545Z,942.5
2023-06-07T11:17:00.561Z,941.4
2023-06-07T11:18:00.757Z,942.3
2023-06-07T11:19:00.575Z,942.1
2023-06-07T11:20:00.525Z,942.1
2023-06-07T11:21:00.546Z,941.4
2023-06-07T11:22:00.561Z,942.3
2023-06-07T11:23:00.560Z,940.6
2023-06-07T11:24:00.650Z,941.9
2023-06-07T11:25:00.528Z,941.4
2023-06-07T11:26:00.640Z,941.4
2023-06-07T11:27:00.546Z,941.4
2023-06-07T11:28:00.533Z,941.4
2023-06-07T11:29:00.562Z,941.7
2023-06-07T11:30:00.558Z,941.7
2023-06-07T11:31:00.580Z,941.7
2023-06-07T11:32:00.804Z,941.9
2023-06-07T11:33:00.654Z,941.4
2023-06-07T11:34:00.564Z,941.2
2023-06-07T11:35:00.545Z,941.4
2023-06-07T11:36:00.549Z,941.7
2023-06-07T11:37:00.544Z,942.3
2023-06-07T11:38:00.549Z,942.1
2023-06-07T11:39:00.546Z,942.3
2023-06-07T11:40:00.557Z,941.7
2023-06-07T11:41:00.586Z,941.4
2023-06-07T11:42:00.556Z,941.9
2023-06-07T11:43:00.572Z,941.4
2023-06-07T11:44:00.590Z,941.4
2023-06-07T11:45:00.557Z,941.9
2023-06-07T11:46:00.580Z,941.7
2023-06-07T11:47:00.599Z,941
2023-06-07T11:48:00.622Z,940.8
2023-06-07T11:49:00.619Z,940.6
2023-06-07T11:50:00.570Z,940.6
2023-06-07T11:51:00.589Z,940.1
2023-06-07T11:52:00.584Z,939.7
2023-06-07T11:53:00.563Z,939.7
2023-06-07T11:54:00.565Z,940.6
2023-06-07T11:55:00.582Z,940.4
2023-06-07T11:56:00.581Z,940.1
2023-06-07T11:57:00.581Z,941
2023-06-07T11:58:00.573Z,940.6
2023-06-07T11:59:00.566Z,940.6
2023-06-07T12:00:00.589Z,939
2023-06-07T12:01:00.631Z,939.3
2023-06-07T12:02:00.601Z,939.7
2023-06-07T12:03:00.785Z,939.9
2023-06-07T12:04:00.614Z,940.1
2023-06-07T12:05:00.645Z,939.3
2023-06-07T12:06:00.564Z,939.5
2023-06-07T12:07:00.569Z,939.3
2023-06-07T12:08:00.570Z,939.7
2023-06-07T12:09:00.571Z,939.7
2023-06-07T12:10:00.573Z,940.1
2023-06-07T12:11:00.603Z,940.1
2023-06-07T12:12:00.577Z,940.4
2023-06-07T12:13:00.641Z,940.1
2023-06-07T12:14:00.798Z,939.7
2023-06-07T12:15:00.589Z,940.1
2023-06-07T12:16:00.616Z,940.8
2023-06-07T12:17:00.589Z,940.1
2023-06-07T12:18:00.611Z,940.1
2023-06-07T12:19:00.583Z,939.9
2023-06-07T12:20:00.581Z,939.7
2023-06-07T12:21:00.585Z,939.7
2023-06-07T12:22:00.584Z,939.9
2023-06-07T12:23:00.605Z,940.4
2023-06-07T12:24:00.615Z,941.2
2023-06-07T12:25:00.586Z,941
2023-06-07T12:26:00.653Z,940.1
2023-06-07T12:27:00.588Z,939.9
2023-06-07T12:28:00.596Z,939.7
2023-06-07T12:29:00.610Z,940.1
2023-06-07T12:30:00.593Z,939.7
2023-06-07T12:31:00.609Z,939.9
2023-06-07T12:32:00.601Z,940.1
2023-06-07T12:33:00.698Z,940.1
2023-06-07T12:34:00.649Z,939.7
2023-06-07T12:35:00.606Z,940.4
2023-06-07T12:36:00.607Z,940.1
2023-06-07T12:37:00.603Z,940.6
2023-06-07T12:38:00.610Z,939.9
2023-06-07T12:39:00.613Z,939.3
2023-06-07T12:40:00.614Z,939.9
2023-06-07T12:41:00.676Z,939.7
2023-06-07T12:42:00.611Z,940.1
2023-06-07T12:43:00.614Z,940.1
2023-06-07T12:44:00.644Z,939.7
2023-06-07T12:45:00.629Z,939
2023-06-07T12:46:00.630Z,938.4
2023-06-07T12:47:00.763Z,938.6
2023-06-07T12:48:00.690Z,938.4
2023-06-07T12:49:00.620Z,938.8
2023-06-07T12:50:00.708Z,939.3
2023-06-07T12:51:00.631Z,939
2023-06-07T12:52:00.634Z,939
2023-06-07T12:53:00.625Z,939.5
2023-06-07T12:54:00.639Z,938.8
2023-06-07T12:55:00.626Z,938.4
2023-06-07T12:56:00.632Z,938
2023-06-07T12:57:00.758Z,938.6
2023-06-07T12:58:00.620Z,938.4
2023-06-07T12:59:02.276Z,939.3
2023-06-07T13:00:00.648Z,939.3